sensor_id;sensor_type;location;lat;lon;timestamp;temperature;humidity
31799;DHT22;18374;51.136;3.502;2022-12-29T00:00:22;10.80;99.90
31799;DHT22;18374;51.136;3.502;2022-12-29T00:02:50;10.80;99.90
31799;DHT22;18374;51.136;3.502;2022-12-29T00:05:18;10.80;99.90
31799;DHT22;18374;51.136;3.502;2022-12-29T00:07:45;10.90;99.90
31799;DHT22;18374;51.136;3.502;2022-12-29T00:10:13;10.90;99.90
31799;DHT22;18374;51.136;3.502;2022-12-29T00:12:41;10.90;99.90
31799;DHT22;18374;51.136;3.502;2022-12-29T00:15:27;10.90;99.90
31799;DHT22;18374;51.136;3.502;2022-12-29T00:18:07;10.90;99.90
31799;DHT22;18374;51.136;3.502;2022-12-29T00:20:36;11.00;99.90
31799;DHT22;18374;51.136;3.502;2022-12-29T00:23:22;11.00;99.90
31799;DHT22;18374;51.136;3.502;2022-12-29T00:26:14;10.90;99.90
31799;DHT22;18374;51.136;3.502;2022-12-29T00:29:01;10.90;99.90
31799;DHT22;18374;51.136;3.502;2022-12-29T00:31:48;10.90;99.90
31799;DHT22;18374;51.136;3.502;2022-12-29T00:34:34;10.90;99.90
31799;DHT22;18374;51.136;3.502;2022-12-29T00:37:20;10.90;99.90
31799;DHT22;18374;51.136;3.502;2022-12-29T00:40:08;10.80;99.90
31799;DHT22;18374;51.136;3.502;2022-12-29T00:42:55;10.80;99.90
31799;DHT22;18374;51.136;3.502;2022-12-29T00:45:41;10.70;99.90
31799;DHT22;18374;51.136;3.502;2022-12-29T00:48:09;10.60;99.90
31799;DHT22;18374;51.136;3.502;2022-12-29T00:50:37;10.60;99.90
31799;DHT22;18374;51.136;3.502;2022-12-29T00:53:04;10.50;99.90
31799;DHT22;18374;51.136;3.502;2022-12-29T00:55:36;10.50;99.90
31799;DHT22;18374;51.136;3.502;2022-12-29T00:58:05;10.40;99.90
31799;DHT22;18374;51.136;3.502;2022-12-29T01:00:33;10.40;99.90
31799;DHT22;18374;51.136;3.502;2022-12-29T01:03:01;10.40;99.90
31799;DHT22;18374;51.136;3.502;2022-12-29T01:05:29;10.40;99.90
31799;DHT22;18374;51.136;3.502;2022-12-29T01:07:57;10.30;99.90
31799;DHT22;18374;51.136;3.502;2022-12-29T01:10:25;10.30;99.90
31799;DHT22;18374;51.136;3.502;2022-12-29T01:12:53;10.40;99.90
31799;DHT22;18374;51.136;3.502;2022-12-29T01:15:20;10.40;99.90
31799;DHT22;18374;51.136;3.502;2022-12-29T01:17:48;10.40;99.90
31799;DHT22;18374;51.136;3.502;2022-12-29T01:20:16;10.40;99.90
31799;DHT22;18374;51.136;3.502;2022-12-29T01:22:44;10.40;99.90
31799;DHT22;18374;51.136;3.502;2022-12-29T01:25:13;10.50;99.90
31799;DHT22;18374;51.136;3.502;2022-12-29T01:27:40;10.50;99.90
31799;DHT22;18374;51.136;3.502;2022-12-29T01:30:08;10.50;99.90
31799;DHT22;18374;51.136;3.502;2022-12-29T01:32:36;10.50;99.90
31799;DHT22;18374;51.136;3.502;2022-12-29T01:35:04;10.60;99.90
31799;DHT22;18374;51.136;3.502;2022-12-29T01:37:34;10.60;99.90
31799;DHT22;18374;51.136;3.502;2022-12-29T01:40:02;10.60;99.90
31799;DHT22;18374;51.136;3.502;2022-12-29T01:42:32;10.60;99.90
31799;DHT22;18374;51.136;3.502;2022-12-29T01:45:03;10.60;99.90
31799;DHT22;18374;51.136;3.502;2022-12-29T01:47:39;10.60;99.90
31799;DHT22;18374;51.136;3.502;2022-12-29T01:50:22;10.60;99.90
31799;DHT22;18374;51.136;3.502;2022-12-29T01:53:00;10.60;99.90
31799;DHT22;18374;51.136;3.502;2022-12-29T01:55:34;10.60;99.90
31799;DHT22;18374;51.136;3.502;2022-12-29T01:58:08;10.60;99.90
31799;DHT22;18374;51.136;3.502;2022-12-29T02:00:37;10.60;99.90
31799;DHT22;18374;51.136;3.502;2022-12-29T02:03:06;10.60;99.90
31799;DHT22;18374;51.136;3.502;2022-12-29T02:08:22;10.60;99.90
31799;DHT22;18374;51.136;3.502;2022-12-29T02:10:53;10.60;99.90
31799;DHT22;18374;51.136;3.502;2022-12-29T02:13:26;10.60;99.90
31799;DHT22;18374;51.136;3.502;2022-12-29T02:22:27;10.50;99.90
31799;DHT22;18374;51.136;3.502;2022-12-29T02:25:12;10.40;99.90
31799;DHT22;18374;51.136;3.502;2022-12-29T02:36:41;10.10;99.90
31799;DHT22;18374;51.136;3.502;2022-12-29T02:47:41;9.80;99.90
31799;DHT22;18374;51.136;3.502;2022-12-29T02:50:28;9.70;99.90
31799;DHT22;18374;51.136;3.502;2022-12-29T02:53:07;9.70;99.90
31799;DHT22;18374;51.136;3.502;2022-12-29T02:55:37;9.70;99.90
31799;DHT22;18374;51.136;3.502;2022-12-29T02:58:20;9.70;99.90
31799;DHT22;18374;51.136;3.502;2022-12-29T03:19:25;9.40;99.90
31799;DHT22;18374;51.136;3.502;2022-12-29T03:25:19;9.50;99.90
31799;DHT22;18374;51.136;3.502;2022-12-29T03:28:01;9.50;99.90
31799;DHT22;18374;51.136;3.502;2022-12-29T03:30:36;9.50;99.90
31799;DHT22;18374;51.136;3.502;2022-12-29T03:33:10;9.40;99.90
31799;DHT22;18374;51.136;3.502;2022-12-29T03:35:42;9.50;99.90
31799;DHT22;18374;51.136;3.502;2022-12-29T03:38:23;9.50;99.90
31799;DHT22;18374;51.136;3.502;2022-12-29T03:41:07;9.60;99.90
31799;DHT22;18374;51.136;3.502;2022-12-29T03:43:37;9.60;99.90
31799;DHT22;18374;51.136;3.502;2022-12-29T03:46:05;9.60;99.90
31799;DHT22;18374;51.136;3.502;2022-12-29T03:48:34;9.60;99.90
31799;DHT22;18374;51.136;3.502;2022-12-29T03:51:03;9.60;99.90
31799;DHT22;18374;51.136;3.502;2022-12-29T03:53:31;9.70;99.90
31799;DHT22;18374;51.136;3.502;2022-12-29T03:56:00;9.70;99.90
31799;DHT22;18374;51.136;3.502;2022-12-29T03:58:28;9.70;99.90
31799;DHT22;18374;51.136;3.502;2022-12-29T04:01:03;9.70;99.90
31799;DHT22;18374;51.136;3.502;2022-12-29T04:03:34;9.70;99.90
31799;DHT22;18374;51.136;3.502;2022-12-29T04:06:02;9.70;99.90
31799;DHT22;18374;51.136;3.502;2022-12-29T04:08:37;9.80;99.90
31799;DHT22;18374;51.136;3.502;2022-12-29T04:11:06;9.70;99.90
31799;DHT22;18374;51.136;3.502;2022-12-29T04:13:34;9.70;99.90
31799;DHT22;18374;51.136;3.502;2022-12-29T04:16:01;9.70;99.90
31799;DHT22;18374;51.136;3.502;2022-12-29T04:18:29;9.80;99.90
31799;DHT22;18374;51.136;3.502;2022-12-29T04:20:57;9.70;99.90
31799;DHT22;18374;51.136;3.502;2022-12-29T04:23:30;9.60;99.90
31799;DHT22;18374;51.136;3.502;2022-12-29T04:26:00;9.60;99.90
31799;DHT22;18374;51.136;3.502;2022-12-29T04:28:29;9.60;99.90
31799;DHT22;18374;51.136;3.502;2022-12-29T04:31:10;9.60;99.90
31799;DHT22;18374;51.136;3.502;2022-12-29T04:33:41;9.50;99.90
31799;DHT22;18374;51.136;3.502;2022-12-29T04:36:08;9.60;99.90
31799;DHT22;18374;51.136;3.502;2022-12-29T04:38:38;9.60;99.90
31799;DHT22;18374;51.136;3.502;2022-12-29T04:41:05;9.60;99.90
31799;DHT22;18374;51.136;3.502;2022-12-29T04:43:35;9.70;99.90
31799;DHT22;18374;51.136;3.502;2022-12-29T04:46:21;9.70;99.90
31799;DHT22;18374;51.136;3.502;2022-12-29T04:49:12;9.70;99.90
31799;DHT22;18374;51.136;3.502;2022-12-29T04:52:00;9.70;99.90
31799;DHT22;18374;51.136;3.502;2022-12-29T04:54:27;9.70;99.90
31799;DHT22;18374;51.136;3.502;2022-12-29T04:57:05;9.80;99.90
31799;DHT22;18374;51.136;3.502;2022-12-29T04:59:34;9.80;99.90
31799;DHT22;18374;51.136;3.502;2022-12-29T05:02:02;9.80;99.90
31799;DHT22;18374;51.136;3.502;2022-12-29T05:04:32;9.80;99.90
31799;DHT22;18374;51.136;3.502;2022-12-29T05:07:00;9.90;99.90
31799;DHT22;18374;51.136;3.502;2022-12-29T05:09:28;9.90;99.90
31799;DHT22;18374;51.136;3.502;2022-12-29T05:11:57;9.80;99.90
31799;DHT22;18374;51.136;3.502;2022-12-29T05:14:25;9.90;99.90
31799;DHT22;18374;51.136;3.502;2022-12-29T05:16:53;9.80;99.90
31799;DHT22;18374;51.136;3.502;2022-12-29T05:19:21;9.70;99.90
31799;DHT22;18374;51.136;3.502;2022-12-29T05:21:49;9.70;99.90
31799;DHT22;18374;51.136;3.502;2022-12-29T05:24:16;9.70;99.90
31799;DHT22;18374;51.136;3.502;2022-12-29T05:26:44;9.70;99.90
31799;DHT22;18374;51.136;3.502;2022-12-29T05:29:35;9.70;99.90
31799;DHT22;18374;51.136;3.502;2022-12-29T05:32:03;9.90;99.90
31799;DHT22;18374;51.136;3.502;2022-12-29T05:34:31;9.80;99.90
31799;DHT22;18374;51.136;3.502;2022-12-29T05:36:59;9.80;99.90
31799;DHT22;18374;51.136;3.502;2022-12-29T05:39:28;9.70;99.90
31799;DHT22;18374;51.136;3.502;2022-12-29T05:42:00;9.60;99.90
31799;DHT22;18374;51.136;3.502;2022-12-29T05:44:43;9.70;99.90
31799;DHT22;18374;51.136;3.502;2022-12-29T05:47:17;9.70;99.90
31799;DHT22;18374;51.136;3.502;2022-12-29T05:49:52;9.80;99.90
31799;DHT22;18374;51.136;3.502;2022-12-29T05:52:58;9.80;99.90
31799;DHT22;18374;51.136;3.502;2022-12-29T05:55:26;9.80;99.90
31799;DHT22;18374;51.136;3.502;2022-12-29T05:57:54;9.90;99.90
31799;DHT22;18374;51.136;3.502;2022-12-29T06:00:22;9.90;99.90
31799;DHT22;18374;51.136;3.502;2022-12-29T06:02:50;9.90;99.90
31799;DHT22;18374;51.136;3.502;2022-12-29T06:05:18;9.80;99.90
31799;DHT22;18374;51.136;3.502;2022-12-29T06:07:46;9.90;99.90
31799;DHT22;18374;51.136;3.502;2022-12-29T06:10:16;9.90;99.90
31799;DHT22;18374;51.136;3.502;2022-12-29T06:12:58;9.90;99.90
31799;DHT22;18374;51.136;3.502;2022-12-29T06:15:25;9.90;99.90
31799;DHT22;18374;51.136;3.502;2022-12-29T06:17:54;9.80;99.90
31799;DHT22;18374;51.136;3.502;2022-12-29T06:20:22;9.80;99.90
31799;DHT22;18374;51.136;3.502;2022-12-29T06:22:50;9.80;99.90
31799;DHT22;18374;51.136;3.502;2022-12-29T06:25:18;9.80;99.90
31799;DHT22;18374;51.136;3.502;2022-12-29T06:27:46;9.80;99.90
31799;DHT22;18374;51.136;3.502;2022-12-29T06:30:14;9.80;99.90
31799;DHT22;18374;51.136;3.502;2022-12-29T06:32:44;9.80;99.90
31799;DHT22;18374;51.136;3.502;2022-12-29T06:35:13;9.80;99.90
31799;DHT22;18374;51.136;3.502;2022-12-29T06:37:45;9.70;99.90
31799;DHT22;18374;51.136;3.502;2022-12-29T06:40:13;9.50;99.90
31799;DHT22;18374;51.136;3.502;2022-12-29T06:43:07;9.50;99.90
31799;DHT22;18374;51.136;3.502;2022-12-29T06:45:55;9.40;99.90
31799;DHT22;18374;51.136;3.502;2022-12-29T06:48:23;9.30;99.90
31799;DHT22;18374;51.136;3.502;2022-12-29T06:50:51;9.20;99.90
31799;DHT22;18374;51.136;3.502;2022-12-29T06:53:18;9.20;99.90
31799;DHT22;18374;51.136;3.502;2022-12-29T06:55:46;9.20;99.90
31799;DHT22;18374;51.136;3.502;2022-12-29T06:58:14;9.20;99.90
31799;DHT22;18374;51.136;3.502;2022-12-29T07:00:41;9.20;99.90
31799;DHT22;18374;51.136;3.502;2022-12-29T07:03:09;9.20;99.90
31799;DHT22;18374;51.136;3.502;2022-12-29T07:05:37;9.30;99.90
31799;DHT22;18374;51.136;3.502;2022-12-29T07:08:05;9.30;99.90
31799;DHT22;18374;51.136;3.502;2022-12-29T07:10:33;9.40;99.90
31799;DHT22;18374;51.136;3.502;2022-12-29T07:13:01;9.40;99.90
31799;DHT22;18374;51.136;3.502;2022-12-29T07:15:29;9.50;99.90
31799;DHT22;18374;51.136;3.502;2022-12-29T07:17:56;9.50;99.90
31799;DHT22;18374;51.136;3.502;2022-12-29T07:20:24;9.60;99.90
31799;DHT22;18374;51.136;3.502;2022-12-29T07:22:53;9.70;99.90
31799;DHT22;18374;51.136;3.502;2022-12-29T07:25:22;9.70;99.90
31799;DHT22;18374;51.136;3.502;2022-12-29T07:27:50;9.70;99.90
31799;DHT22;18374;51.136;3.502;2022-12-29T07:30:17;9.70;99.90
31799;DHT22;18374;51.136;3.502;2022-12-29T07:32:45;9.80;99.90
31799;DHT22;18374;51.136;3.502;2022-12-29T07:35:13;9.80;99.90
31799;DHT22;18374;51.136;3.502;2022-12-29T07:37:40;9.80;99.90
31799;DHT22;18374;51.136;3.502;2022-12-29T07:40:09;9.80;99.90
31799;DHT22;18374;51.136;3.502;2022-12-29T07:42:37;9.80;99.90
31799;DHT22;18374;51.136;3.502;2022-12-29T07:45:08;9.80;99.90
31799;DHT22;18374;51.136;3.502;2022-12-29T07:47:49;9.70;99.90
31799;DHT22;18374;51.136;3.502;2022-12-29T07:50:17;9.60;99.90
31799;DHT22;18374;51.136;3.502;2022-12-29T07:52:44;9.60;99.90
31799;DHT22;18374;51.136;3.502;2022-12-29T07:55:15;9.60;99.90
31799;DHT22;18374;51.136;3.502;2022-12-29T07:57:43;9.50;99.90
31799;DHT22;18374;51.136;3.502;2022-12-29T08:00:11;9.50;99.90
31799;DHT22;18374;51.136;3.502;2022-12-29T08:02:39;9.40;99.90
31799;DHT22;18374;51.136;3.502;2022-12-29T08:05:07;9.40;99.90
31799;DHT22;18374;51.136;3.502;2022-12-29T08:07:35;9.30;99.90
31799;DHT22;18374;51.136;3.502;2022-12-29T08:10:03;9.30;99.90
31799;DHT22;18374;51.136;3.502;2022-12-29T08:12:31;9.20;99.90
31799;DHT22;18374;51.136;3.502;2022-12-29T08:14:59;9.10;99.90
31799;DHT22;18374;51.136;3.502;2022-12-29T08:17:26;9.00;99.90
31799;DHT22;18374;51.136;3.502;2022-12-29T08:19:54;9.00;99.90
31799;DHT22;18374;51.136;3.502;2022-12-29T08:22:22;9.00;99.90
31799;DHT22;18374;51.136;3.502;2022-12-29T08:24:50;9.00;99.90
31799;DHT22;18374;51.136;3.502;2022-12-29T08:27:19;9.00;99.90
31799;DHT22;18374;51.136;3.502;2022-12-29T08:29:48;8.90;99.90
31799;DHT22;18374;51.136;3.502;2022-12-29T08:32:16;8.90;99.90
31799;DHT22;18374;51.136;3.502;2022-12-29T08:34:44;8.90;99.90
31799;DHT22;18374;51.136;3.502;2022-12-29T08:37:12;8.90;99.90
31799;DHT22;18374;51.136;3.502;2022-12-29T08:39:40;8.90;99.90
31799;DHT22;18374;51.136;3.502;2022-12-29T08:42:08;8.90;99.90
31799;DHT22;18374;51.136;3.502;2022-12-29T08:44:35;9.00;99.90
31799;DHT22;18374;51.136;3.502;2022-12-29T08:47:03;9.00;99.90
31799;DHT22;18374;51.136;3.502;2022-12-29T08:49:31;9.00;99.90
31799;DHT22;18374;51.136;3.502;2022-12-29T08:52:00;8.90;99.90
31799;DHT22;18374;51.136;3.502;2022-12-29T08:54:28;8.90;99.90
31799;DHT22;18374;51.136;3.502;2022-12-29T08:56:55;8.90;99.90
31799;DHT22;18374;51.136;3.502;2022-12-29T08:59:31;8.90;99.90
31799;DHT22;18374;51.136;3.502;2022-12-29T09:01:58;9.00;99.90
31799;DHT22;18374;51.136;3.502;2022-12-29T09:04:27;9.00;99.90
31799;DHT22;18374;51.136;3.502;2022-12-29T09:06:55;9.00;99.90
31799;DHT22;18374;51.136;3.502;2022-12-29T09:09:23;9.00;99.90
31799;DHT22;18374;51.136;3.502;2022-12-29T09:11:51;9.00;99.90
31799;DHT22;18374;51.136;3.502;2022-12-29T09:14:18;9.10;99.90
31799;DHT22;18374;51.136;3.502;2022-12-29T09:16:46;9.10;99.90
31799;DHT22;18374;51.136;3.502;2022-12-29T09:19:32;9.10;99.90
31799;DHT22;18374;51.136;3.502;2022-12-29T09:22:00;9.10;99.90
31799;DHT22;18374;51.136;3.502;2022-12-29T09:24:28;9.10;99.90
31799;DHT22;18374;51.136;3.502;2022-12-29T09:26:56;9.20;99.90
31799;DHT22;18374;51.136;3.502;2022-12-29T09:29:23;9.20;99.90
31799;DHT22;18374;51.136;3.502;2022-12-29T09:31:51;9.20;99.90
31799;DHT22;18374;51.136;3.502;2022-12-29T09:34:19;9.20;99.90
31799;DHT22;18374;51.136;3.502;2022-12-29T09:36:46;9.30;99.90
31799;DHT22;18374;51.136;3.502;2022-12-29T09:39:14;9.30;99.90
31799;DHT22;18374;51.136;3.502;2022-12-29T09:45:00;9.20;99.90
31799;DHT22;18374;51.136;3.502;2022-12-29T09:47:41;9.20;99.90
31799;DHT22;18374;51.136;3.502;2022-12-29T09:55:55;9.20;99.90
31799;DHT22;18374;51.136;3.502;2022-12-29T09:59:14;9.20;99.90
31799;DHT22;18374;51.136;3.502;2022-12-29T10:04:28;9.30;99.90
31799;DHT22;18374;51.136;3.502;2022-12-29T10:07:23;9.30;99.90
31799;DHT22;18374;51.136;3.502;2022-12-29T10:15:52;9.30;99.90
31799;DHT22;18374;51.136;3.502;2022-12-29T10:24:13;9.50;99.90
31799;DHT22;18374;51.136;3.502;2022-12-29T10:26:42;9.50;99.90
31799;DHT22;18374;51.136;3.502;2022-12-29T10:29:32;9.60;99.90
31799;DHT22;18374;51.136;3.502;2022-12-29T10:32:34;9.70;99.90
31799;DHT22;18374;51.136;3.502;2022-12-29T10:35:20;9.90;99.90
31799;DHT22;18374;51.136;3.502;2022-12-29T10:40:33;10.10;99.90
31799;DHT22;18374;51.136;3.502;2022-12-29T10:43:24;10.10;99.90
31799;DHT22;18374;51.136;3.502;2022-12-29T10:46:02;10.20;99.90
31799;DHT22;18374;51.136;3.502;2022-12-29T10:48:34;10.10;99.90
31799;DHT22;18374;51.136;3.502;2022-12-29T10:51:05;10.00;99.90
31799;DHT22;18374;51.136;3.502;2022-12-29T10:53:43;9.90;99.90
31799;DHT22;18374;51.136;3.502;2022-12-29T10:56:34;9.90;99.90
31799;DHT22;18374;51.136;3.502;2022-12-29T10:59:17;9.90;99.90
31799;DHT22;18374;51.136;3.502;2022-12-29T11:07:21;9.90;99.90
31799;DHT22;18374;51.136;3.502;2022-12-29T11:09:54;9.90;99.90
31799;DHT22;18374;51.136;3.502;2022-12-29T11:12:25;9.90;99.90
31799;DHT22;18374;51.136;3.502;2022-12-29T11:15:13;9.90;99.90
31799;DHT22;18374;51.136;3.502;2022-12-29T11:20:34;9.80;99.90
31799;DHT22;18374;51.136;3.502;2022-12-29T11:23:29;9.70;99.90
31799;DHT22;18374;51.136;3.502;2022-12-29T11:26:21;9.70;99.90
31799;DHT22;18374;51.136;3.502;2022-12-29T11:31:50;9.60;99.90
31799;DHT22;18374;51.136;3.502;2022-12-29T11:34:23;9.60;99.90
31799;DHT22;18374;51.136;3.502;2022-12-29T11:37:12;9.60;99.90
31799;DHT22;18374;51.136;3.502;2022-12-29T11:42:23;9.60;99.90
31799;DHT22;18374;51.136;3.502;2022-12-29T11:45:06;9.60;99.90
31799;DHT22;18374;51.136;3.502;2022-12-29T11:47:45;9.60;99.90
31799;DHT22;18374;51.136;3.502;2022-12-29T11:50:22;9.60;99.90
31799;DHT22;18374;51.136;3.502;2022-12-29T11:53:25;9.60;99.90
31799;DHT22;18374;51.136;3.502;2022-12-29T11:56:00;9.60;99.90
31799;DHT22;18374;51.136;3.502;2022-12-29T11:58:35;9.60;99.90
31799;DHT22;18374;51.136;3.502;2022-12-29T12:01:35;9.60;99.90
31799;DHT22;18374;51.136;3.502;2022-12-29T12:04:14;9.60;99.90
31799;DHT22;18374;51.136;3.502;2022-12-29T12:06:48;9.60;99.90
31799;DHT22;18374;51.136;3.502;2022-12-29T12:10:11;9.60;99.90
31799;DHT22;18374;51.136;3.502;2022-12-29T12:12:51;9.70;99.90
31799;DHT22;18374;51.136;3.502;2022-12-29T12:15:44;9.60;99.90
31799;DHT22;18374;51.136;3.502;2022-12-29T12:21:56;9.60;99.90
31799;DHT22;18374;51.136;3.502;2022-12-29T12:33:06;9.80;99.90
31799;DHT22;18374;51.136;3.502;2022-12-29T12:36:09;9.80;99.90
31799;DHT22;18374;51.136;3.502;2022-12-29T12:42:13;9.90;99.90
31799;DHT22;18374;51.136;3.502;2022-12-29T12:48:00;9.90;99.90
31799;DHT22;18374;51.136;3.502;2022-12-29T12:50:54;9.90;99.90
31799;DHT22;18374;51.136;3.502;2022-12-29T12:53:40;9.90;99.90
31799;DHT22;18374;51.136;3.502;2022-12-29T12:59:07;9.80;99.90
31799;DHT22;18374;51.136;3.502;2022-12-29T13:02:24;9.80;99.90
31799;DHT22;18374;51.136;3.502;2022-12-29T13:08:56;9.70;99.90
31799;DHT22;18374;51.136;3.502;2022-12-29T13:14:52;9.60;99.90
31799;DHT22;18374;51.136;3.502;2022-12-29T13:23:23;9.50;99.90
31799;DHT22;18374;51.136;3.502;2022-12-29T13:29:34;9.30;99.90
31799;DHT22;18374;51.136;3.502;2022-12-29T13:37:48;9.20;99.90
31799;DHT22;18374;51.136;3.502;2022-12-29T13:40:24;9.20;99.90
31799;DHT22;18374;51.136;3.502;2022-12-29T13:42:53;9.10;99.90
31799;DHT22;18374;51.136;3.502;2022-12-29T13:45:24;9.10;99.90
31799;DHT22;18374;51.136;3.502;2022-12-29T13:48:01;9.00;99.90
31799;DHT22;18374;51.136;3.502;2022-12-29T13:50:36;9.10;99.90
31799;DHT22;18374;51.136;3.502;2022-12-29T13:53:11;9.00;99.90
31799;DHT22;18374;51.136;3.502;2022-12-29T13:58:50;9.10;99.90
31799;DHT22;18374;51.136;3.502;2022-12-29T14:04:58;9.00;99.90
31799;DHT22;18374;51.136;3.502;2022-12-29T14:07:37;8.90;99.90
31799;DHT22;18374;51.136;3.502;2022-12-29T14:10:06;8.80;99.90
31799;DHT22;18374;51.136;3.502;2022-12-29T14:13:14;8.80;99.90
31799;DHT22;18374;51.136;3.502;2022-12-29T14:15:55;8.70;99.90
31799;DHT22;18374;51.136;3.502;2022-12-29T14:18:32;8.80;99.90
31799;DHT22;18374;51.136;3.502;2022-12-29T14:23:50;8.70;99.90
31799;DHT22;18374;51.136;3.502;2022-12-29T14:42:38;8.60;99.90
31799;DHT22;18374;51.136;3.502;2022-12-29T14:45:19;8.60;99.90
31799;DHT22;18374;51.136;3.502;2022-12-29T14:47:55;8.50;99.90
31799;DHT22;18374;51.136;3.502;2022-12-29T14:50:40;8.50;99.90
31799;DHT22;18374;51.136;3.502;2022-12-29T14:56:29;8.50;99.90
31799;DHT22;18374;51.136;3.502;2022-12-29T14:59:03;8.50;99.90
31799;DHT22;18374;51.136;3.502;2022-12-29T15:01:48;8.50;99.90
31799;DHT22;18374;51.136;3.502;2022-12-29T15:04:30;8.50;99.90
31799;DHT22;18374;51.136;3.502;2022-12-29T15:07:00;8.50;99.90
31799;DHT22;18374;51.136;3.502;2022-12-29T15:09:36;8.60;99.90
31799;DHT22;18374;51.136;3.502;2022-12-29T15:14:57;8.50;99.90
31799;DHT22;18374;51.136;3.502;2022-12-29T15:17:28;8.50;99.90
31799;DHT22;18374;51.136;3.502;2022-12-29T15:20:00;8.50;99.90
31799;DHT22;18374;51.136;3.502;2022-12-29T15:22:30;8.50;99.90
31799;DHT22;18374;51.136;3.502;2022-12-29T15:24:58;8.50;99.90
31799;DHT22;18374;51.136;3.502;2022-12-29T15:27:26;8.50;99.90
31799;DHT22;18374;51.136;3.502;2022-12-29T15:30:04;8.50;99.90
31799;DHT22;18374;51.136;3.502;2022-12-29T15:32:45;8.50;99.90
31799;DHT22;18374;51.136;3.502;2022-12-29T15:35:31;8.50;99.90
31799;DHT22;18374;51.136;3.502;2022-12-29T15:37:59;8.50;99.90
31799;DHT22;18374;51.136;3.502;2022-12-29T15:40:32;8.40;99.90
31799;DHT22;18374;51.136;3.502;2022-12-29T15:45:50;8.40;99.90
31799;DHT22;18374;51.136;3.502;2022-12-29T15:48:21;8.40;99.90
31799;DHT22;18374;51.136;3.502;2022-12-29T15:50:51;8.30;99.90
31799;DHT22;18374;51.136;3.502;2022-12-29T15:53:27;8.30;99.90
31799;DHT22;18374;51.136;3.502;2022-12-29T15:56:01;8.30;99.90
31799;DHT22;18374;51.136;3.502;2022-12-29T15:58:41;8.30;99.90
31799;DHT22;18374;51.136;3.502;2022-12-29T16:01:44;8.30;99.90
31799;DHT22;18374;51.136;3.502;2022-12-29T16:04:12;8.20;99.90
31799;DHT22;18374;51.136;3.502;2022-12-29T16:06:45;8.10;99.90
31799;DHT22;18374;51.136;3.502;2022-12-29T16:09:42;8.10;99.90
31799;DHT22;18374;51.136;3.502;2022-12-29T16:12:17;8.00;99.90
31799;DHT22;18374;51.136;3.502;2022-12-29T16:14:51;8.00;99.90
31799;DHT22;18374;51.136;3.502;2022-12-29T16:17:23;7.90;99.90
31799;DHT22;18374;51.136;3.502;2022-12-29T16:19:56;7.90;99.90
31799;DHT22;18374;51.136;3.502;2022-12-29T16:22:34;7.80;99.90
31799;DHT22;18374;51.136;3.502;2022-12-29T16:27:53;7.70;99.90
31799;DHT22;18374;51.136;3.502;2022-12-29T16:30:25;7.70;99.90
31799;DHT22;18374;51.136;3.502;2022-12-29T16:33:05;7.70;99.90
31799;DHT22;18374;51.136;3.502;2022-12-29T16:35:45;7.70;99.90
31799;DHT22;18374;51.136;3.502;2022-12-29T16:40:55;7.70;99.90
31799;DHT22;18374;51.136;3.502;2022-12-29T16:43:42;7.60;99.90
31799;DHT22;18374;51.136;3.502;2022-12-29T16:46:26;7.70;99.90
31799;DHT22;18374;51.136;3.502;2022-12-29T16:48:56;7.60;99.90
31799;DHT22;18374;51.136;3.502;2022-12-29T16:51:37;7.60;99.90
31799;DHT22;18374;51.136;3.502;2022-12-29T16:54:05;7.60;99.90
31799;DHT22;18374;51.136;3.502;2022-12-29T16:56:35;7.60;99.90
31799;DHT22;18374;51.136;3.502;2022-12-29T16:59:17;7.60;99.90
31799;DHT22;18374;51.136;3.502;2022-12-29T17:02:07;7.60;99.90
31799;DHT22;18374;51.136;3.502;2022-12-29T17:04:41;7.60;99.90
31799;DHT22;18374;51.136;3.502;2022-12-29T17:07:19;7.60;99.90
31799;DHT22;18374;51.136;3.502;2022-12-29T17:09:49;7.60;99.90
31799;DHT22;18374;51.136;3.502;2022-12-29T17:12:20;7.60;99.90
31799;DHT22;18374;51.136;3.502;2022-12-29T17:15:45;7.60;99.90
31799;DHT22;18374;51.136;3.502;2022-12-29T17:17:55;7.60;99.90
31799;DHT22;18374;51.136;3.502;2022-12-29T17:20:28;7.60;99.90
31799;DHT22;18374;51.136;3.502;2022-12-29T17:22:58;7.70;99.90
31799;DHT22;18374;51.136;3.502;2022-12-29T17:25:32;7.70;99.90
31799;DHT22;18374;51.136;3.502;2022-12-29T17:28:20;7.70;99.90
31799;DHT22;18374;51.136;3.502;2022-12-29T17:30:55;7.70;99.90
31799;DHT22;18374;51.136;3.502;2022-12-29T17:33:35;7.70;99.90
31799;DHT22;18374;51.136;3.502;2022-12-29T17:36:05;7.70;99.90
31799;DHT22;18374;51.136;3.502;2022-12-29T17:38:37;7.70;99.90
31799;DHT22;18374;51.136;3.502;2022-12-29T17:41:11;7.70;99.90
31799;DHT22;18374;51.136;3.502;2022-12-29T17:43:40;7.60;99.90
31799;DHT22;18374;51.136;3.502;2022-12-29T17:46:08;7.60;99.90
31799;DHT22;18374;51.136;3.502;2022-12-29T17:48:36;7.60;99.90
31799;DHT22;18374;51.136;3.502;2022-12-29T17:51:05;7.70;99.90
31799;DHT22;18374;51.136;3.502;2022-12-29T17:53:35;7.80;99.90
31799;DHT22;18374;51.136;3.502;2022-12-29T17:56:03;7.80;99.90
31799;DHT22;18374;51.136;3.502;2022-12-29T17:58:32;7.80;99.90
31799;DHT22;18374;51.136;3.502;2022-12-29T18:01:01;7.80;99.90
31799;DHT22;18374;51.136;3.502;2022-12-29T18:03:38;7.80;99.90
31799;DHT22;18374;51.136;3.502;2022-12-29T18:06:08;7.70;99.90
31799;DHT22;18374;51.136;3.502;2022-12-29T18:08:40;7.70;99.90
31799;DHT22;18374;51.136;3.502;2022-12-29T18:11:24;7.70;99.90
31799;DHT22;18374;51.136;3.502;2022-12-29T18:13:53;7.70;99.90
31799;DHT22;18374;51.136;3.502;2022-12-29T18:16:22;7.70;99.90
31799;DHT22;18374;51.136;3.502;2022-12-29T18:18:50;7.80;99.90
31799;DHT22;18374;51.136;3.502;2022-12-29T18:21:21;7.70;99.90
31799;DHT22;18374;51.136;3.502;2022-12-29T18:23:50;7.80;99.90
31799;DHT22;18374;51.136;3.502;2022-12-29T18:26:23;7.70;99.90
31799;DHT22;18374;51.136;3.502;2022-12-29T18:28:56;7.70;99.90
31799;DHT22;18374;51.136;3.502;2022-12-29T18:31:27;7.70;99.90
31799;DHT22;18374;51.136;3.502;2022-12-29T18:33:57;7.70;99.90
31799;DHT22;18374;51.136;3.502;2022-12-29T18:36:27;7.70;99.90
31799;DHT22;18374;51.136;3.502;2022-12-29T18:38:55;7.70;99.90
31799;DHT22;18374;51.136;3.502;2022-12-29T18:41:25;7.70;99.90
31799;DHT22;18374;51.136;3.502;2022-12-29T18:43:57;7.70;99.90
31799;DHT22;18374;51.136;3.502;2022-12-29T18:46:26;7.60;99.90
31799;DHT22;18374;51.136;3.502;2022-12-29T18:48:54;7.60;99.90
31799;DHT22;18374;51.136;3.502;2022-12-29T18:51:23;7.60;99.90
31799;DHT22;18374;51.136;3.502;2022-12-29T18:53:52;7.50;99.90
31799;DHT22;18374;51.136;3.502;2022-12-29T18:56:23;7.50;99.90
31799;DHT22;18374;51.136;3.502;2022-12-29T18:58:50;7.50;99.90
31799;DHT22;18374;51.136;3.502;2022-12-29T19:01:25;7.40;99.90
31799;DHT22;18374;51.136;3.502;2022-12-29T19:03:57;7.50;99.90
31799;DHT22;18374;51.136;3.502;2022-12-29T19:06:25;7.40;99.90
31799;DHT22;18374;51.136;3.502;2022-12-29T19:08:52;7.40;99.90
31799;DHT22;18374;51.136;3.502;2022-12-29T19:11:20;7.40;99.90
31799;DHT22;18374;51.136;3.502;2022-12-29T19:13:48;7.40;99.90
31799;DHT22;18374;51.136;3.502;2022-12-29T19:16:19;7.30;99.90
31799;DHT22;18374;51.136;3.502;2022-12-29T19:18:49;7.40;99.90